createdAt,value
2022-09-23T00:01:28.680Z,157875.25
2022-09-23T00:04:00.154Z,157877.97
2022-09-23T00:06:28.842Z,157871.31
2022-09-23T00:08:57.326Z,157861.97
2022-09-23T00:11:28.029Z,157872.63
2022-09-23T00:13:59.960Z,157859.34
2022-09-23T00:16:34.647Z,157856.69
2022-09-23T00:19:04.069Z,157858.00
2022-09-23T00:21:32.419Z,157850.03
2022-09-23T00:24:00.693Z,157859.34
2022-09-23T00:26:29.175Z,157839.38
2022-09-23T00:28:57.618Z,157839.38
2022-09-23T00:31:27.532Z,157826.09
2022-09-23T00:33:57.744Z,157851.38
2022-09-23T00:36:25.810Z,157858.00
2022-09-23T00:38:54.618Z,157877.97
2022-09-23T00:41:24.092Z,157870.00
2022-09-23T00:44:00.922Z,157903.19
2022-09-23T00:46:44.174Z,157913.84
2022-09-23T00:49:31.112Z,157927.16
2022-09-23T00:52:06.494Z,157932.47
2022-09-23T00:54:34.461Z,157948.41
2022-09-23T00:57:05.905Z,157963.03
2022-09-23T00:59:33.878Z,157969.69
2022-09-23T01:02:03.130Z,157986.94
2022-09-23T01:04:32.057Z,157997.59
2022-09-23T01:07:12.426Z,158004.25
2022-09-23T01:09:41.282Z,158024.22
2022-09-23T01:12:34.503Z,158061.44
2022-09-23T01:15:19.992Z,158085.34
2022-09-23T01:17:50.769Z,158115.97
2022-09-23T01:20:36.154Z,158143.97
2022-09-23T01:23:31.641Z,158173.22
2022-09-23T01:26:29.060Z,158187.84
2022-09-23T01:29:18.494Z,158190.50
2022-09-23T01:32:03.610Z,158206.50
2022-09-23T01:34:50.879Z,158223.78
2022-09-23T01:37:38.419Z,158249.06
2022-09-23T01:40:11.813Z,158265.03
2022-09-23T01:42:46.736Z,158262.38
2022-09-23T01:45:34.879Z,158275.66
2022-09-23T01:48:10.742Z,158273.00
2022-09-23T01:51:00.818Z,158262.38
2022-09-23T01:54:16.146Z,158227.78
2022-09-23T01:56:52.383Z,158237.09
2022-09-23T01:59:41.240Z,158231.75
2022-09-23T02:02:17.347Z,158229.09
2022-09-23T02:04:54.962Z,158217.13
2022-09-23T02:07:43.556Z,158205.13
2022-09-23T02:10:19.185Z,158209.16
2022-09-23T02:12:50.589Z,158189.19
2022-09-23T02:15:23.343Z,158178.56
2022-09-23T02:17:59.238Z,158166.56
2022-09-23T02:20:34.262Z,158167.88
2022-09-23T02:23:10.165Z,158174.53
2022-09-23T02:25:48.189Z,158182.53
2022-09-23T02:28:31.580Z,158187.84
2022-09-23T02:31:12.440Z,158186.53
2022-09-23T02:33:52.770Z,158186.53
2022-09-23T02:36:46.115Z,158161.25
2022-09-23T02:39:15.716Z,158150.63
2022-09-23T02:42:04.203Z,158122.63
2022-09-23T02:44:33.706Z,158122.63
2022-09-23T02:47:01.640Z,158123.94
2022-09-23T02:49:31.729Z,158129.28
2022-09-23T02:52:07.788Z,158114.59
2022-09-23T02:54:37.614Z,158139.91
2022-09-23T02:57:07.719Z,158195.84
2022-09-23T02:59:37.487Z,158198.47
2022-09-23T03:02:22.719Z,158202.47
2022-09-23T03:05:41.881Z,158198.47
2022-09-23T03:08:28.393Z,158185.22
2022-09-23T03:11:11.674Z,158174.53
2022-09-23T03:13:51.302Z,158167.88
2022-09-23T03:16:41.277Z,158186.53
2022-09-23T03:19:35.642Z,158177.19
2022-09-23T03:22:20.223Z,158171.91
2022-09-23T03:24:53.711Z,158161.25
2022-09-23T03:27:27.104Z,158173.22
2022-09-23T03:29:55.355Z,158149.25
2022-09-23T03:32:27.569Z,158102.66
2022-09-23T03:34:59.815Z,158117.31
2022-09-23T03:37:37.355Z,158098.66
2022-09-23T03:40:23.374Z,158078.69
2022-09-23T03:42:51.862Z,158089.38
2022-09-23T03:45:23.421Z,158089.38
2022-09-23T03:47:51.173Z,158080.06
2022-09-23T03:50:19.649Z,158065.41
2022-09-23T03:52:50.774Z,158057.41
2022-09-23T03:55:19.849Z,158046.81
2022-09-23T03:57:48.408Z,158029.50
2022-09-23T04:00:17.209Z,158010.91
2022-09-23T04:02:45.816Z,157994.91
2022-09-23T04:05:14.599Z,157975.00
2022-09-23T04:07:43.169Z,157990.97
2022-09-23T04:10:11.902Z,158000.25
2022-09-23T04:12:40.081Z,158001.56
2022-09-23T04:15:09.436Z,157998.94
2022-09-23T04:17:37.877Z,158009.59
2022-09-23T04:20:07.366Z,158021.53
2022-09-23T04:22:36.070Z,158028.19
2022-09-23T04:25:04.717Z,158038.84
2022-09-23T04:27:37.440Z,158042.81
2022-09-23T04:30:07.227Z,158054.78
2022-09-23T04:32:37.133Z,158049.44
2022-09-23T04:35:06.739Z,158068.09
2022-09-23T04:37:35.469Z,158064.06
2022-09-23T04:40:04.120Z,158076.06
2022-09-23T04:42:32.534Z,158092.00
2022-09-23T04:45:00.988Z,158123.94
2022-09-23T04:47:32.117Z,158170.53
2022-09-23T04:50:00.703Z,158218.44
2022-09-23T04:52:31.366Z,158316.91
2022-09-23T04:54:59.894Z,158398.13
2022-09-23T04:57:28.245Z,158420.75
2022-09-23T04:59:57.960Z,158443.38
2022-09-23T05:02:26.627Z,158491.31
2022-09-23T05:04:55.503Z,158479.31
2022-09-23T05:07:23.983Z,158502.00
2022-09-23T05:09:52.729Z,158471.31
2022-09-23T05:12:21.178Z,158475.34
2022-09-23T05:14:49.220Z,158460.69
2022-09-23T05:17:17.741Z,158458.00
2022-09-23T05:19:46.030Z,158436.72
2022-09-23T05:22:14.818Z,158426.09
2022-09-23T05:24:42.605Z,158399.44
2022-09-23T05:27:10.368Z,158367.47
2022-09-23T05:29:39.361Z,158371.50
2022-09-23T05:32:08.513Z,158386.13
2022-09-23T05:34:36.372Z,158370.16
2022-09-23T05:37:05.972Z,158372.81
2022-09-23T05:39:34.234Z,158391.47
2022-09-23T05:42:02.470Z,158339.53
2022-09-23T05:44:31.132Z,158320.91
2022-09-23T05:46:59.114Z,158379.47
2022-09-23T05:49:42.846Z,158384.81
2022-09-23T05:52:17.737Z,158387.44
2022-09-23T05:54:45.741Z,158404.78
2022-09-23T05:57:13.736Z,158435.38
2022-09-23T05:59:47.876Z,158540.59
2022-09-23T06:02:16.425Z,158668.44
2022-09-23T06:05:45.297Z,158799.09
2022-09-23T06:08:15.227Z,158865.72
2022-09-23T06:10:44.976Z,158951.00
2022-09-23T06:13:13.585Z,159060.38
2022-09-23T06:15:42.236Z,159168.41
2022-09-23T06:18:12.774Z,159220.47
2022-09-23T06:20:40.809Z,159252.44
2022-09-23T06:23:11.186Z,159355.28
2022-09-23T06:25:40.118Z,159424.69
2022-09-23T06:28:12.586Z,159459.41
2022-09-23T06:30:41.242Z,159511.44
2022-09-23T06:33:15.364Z,159592.94
2022-09-23T06:35:54.777Z,159611.59
2022-09-23T06:38:27.801Z,159686.47
2022-09-23T06:40:57.759Z,159698.50
2022-09-23T06:43:27.010Z,159741.25
2022-09-23T06:45:57.264Z,159742.56
2022-09-23T06:48:27.345Z,159739.88
2022-09-23T06:50:58.886Z,159784.00
2022-09-23T06:53:27.501Z,159841.44
2022-09-23T06:56:03.273Z,159877.53
2022-09-23T06:58:33.024Z,159933.66
2022-09-23T07:01:09.386Z,159959.03
2022-09-23T07:03:39.055Z,160012.53
2022-09-23T07:06:08.604Z,160033.91
2022-09-23T07:08:36.742Z,160058.06
2022-09-23T07:11:07.249Z,160094.16
2022-09-23T07:13:37.707Z,160011.19
2022-09-23T07:16:06.700Z,160047.28
2022-09-23T07:18:37.459Z,160091.44
2022-09-23T07:21:15.968Z,160054.03
2022-09-23T07:23:49.069Z,160119.53
2022-09-23T07:26:17.068Z,160066.06
2022-09-23T07:28:45.656Z,160078.06
2022-09-23T07:31:24.709Z,160146.28
2022-09-23T07:33:58.176Z,160128.91
2022-09-23T07:36:28.409Z,160134.22
2022-09-23T07:39:01.875Z,160142.25
2022-09-23T07:41:31.666Z,160103.50
2022-09-23T07:44:01.349Z,160102.16
2022-09-23T07:46:32.275Z,160027.22
2022-09-23T07:49:02.532Z,160021.88
2022-09-23T07:51:36.022Z,160035.25
2022-09-23T07:54:11.975Z,160116.88
2022-09-23T07:56:40.055Z,160138.28
2022-09-23T07:59:12.022Z,160181.06
2022-09-23T08:01:42.898Z,160157.00
2022-09-23T08:04:18.904Z,160193.13
2022-09-23T08:06:59.115Z,160191.72
2022-09-23T08:09:32.372Z,160191.72
2022-09-23T08:12:00.833Z,160175.69
2022-09-23T08:14:29.544Z,160175.69
2022-09-23T08:16:57.798Z,160234.59
2022-09-23T08:19:26.406Z,160235.91
2022-09-23T08:21:54.930Z,160210.47
2022-09-23T08:24:24.824Z,160211.81
2022-09-23T08:26:55.038Z,160269.31
2022-09-23T08:29:24.667Z,160298.78
2022-09-23T08:31:53.186Z,160264.00
2022-09-23T08:34:22.818Z,160194.44
2022-09-23T08:36:52.445Z,160147.63
2022-09-23T08:39:21.959Z,160193.13
2022-09-23T08:42:03.159Z,160294.75
2022-09-23T08:44:55.710Z,160242.59
2022-09-23T08:47:35.968Z,160110.19
2022-09-23T08:50:08.705Z,160068.72
2022-09-23T08:52:41.359Z,160070.06
2022-09-23T08:55:14.882Z,160171.72
2022-09-23T08:58:23.823Z,160190.41
2022-09-23T09:01:21.168Z,160083.44
2022-09-23T09:03:59.599Z,159989.81
2022-09-23T09:06:41.842Z,159961.72
2022-09-23T09:09:28.261Z,159944.31
2022-09-23T09:12:19.127Z,160099.47
2022-09-23T09:15:14.488Z,160120.84
2022-09-23T09:18:02.928Z,160036.56
2022-09-23T09:20:59.203Z,160068.72
2022-09-23T09:23:45.731Z,160112.84
2022-09-23T09:26:32.975Z,160086.09
2022-09-23T09:29:41.612Z,160043.25
2022-09-23T09:32:15.959Z,160043.25
2022-09-23T09:34:54.416Z,160118.19
2022-09-23T09:37:47.265Z,160166.34
2022-09-23T09:40:20.785Z,160203.78
2022-09-23T09:42:50.929Z,160258.63
2022-09-23T09:45:20.113Z,160286.75
2022-09-23T09:48:03.461Z,160280.03
2022-09-23T09:50:52.537Z,160268.00
2022-09-23T09:53:29.644Z,160239.91
2022-09-23T09:56:05.216Z,160167.69
2022-09-23T09:58:47.471Z,160178.41
2022-09-23T10:01:28.277Z,160213.13
2022-09-23T10:04:01.796Z,160258.63
2022-09-23T10:06:33.419Z,160231.88
2022-09-23T10:09:18.994Z,160157.00
2022-09-23T10:12:09.770Z,160182.38
2022-09-23T10:14:37.907Z,160155.63
2022-09-23T10:17:07.654Z,160191.72
2022-09-23T10:19:37.245Z,160210.47
2022-09-23T10:22:10.229Z,160173.03
2022-09-23T10:24:42.603Z,160221.19
2022-09-23T10:27:14.265Z,160300.13
2022-09-23T10:29:51.948Z,160285.41
2022-09-23T10:32:44.458Z,160234.59
2022-09-23T10:35:17.754Z,160262.63
2022-09-23T10:37:52.215Z,160282.69
2022-09-23T10:40:49.706Z,160293.44
2022-09-23T10:43:55.082Z,160356.31
2022-09-23T10:46:49.996Z,160385.78
2022-09-23T10:49:37.710Z,160412.56
2022-09-23T10:52:36.638Z,160282.69
2022-09-23T10:55:54.855Z,160207.81
2022-09-23T10:58:26.395Z,160159.66
2022-09-23T11:01:05.711Z,160151.66
2022-09-23T11:03:58.696Z,160182.38
2022-09-23T11:06:34.089Z,160249.28
2022-09-23T11:09:09.418Z,160326.88
2022-09-23T11:12:02.374Z,160423.25
2022-09-23T11:14:55.758Z,160456.72
2022-09-23T11:17:48.897Z,160464.75
2022-09-23T11:20:32.501Z,160431.28
2022-09-23T11:23:06.120Z,160413.91
2022-09-23T11:25:39.921Z,160420.59
2022-09-23T11:28:38.800Z,160349.63
2022-09-23T11:31:33.297Z,160225.19
2022-09-23T11:34:17.060Z,160239.91
2022-09-23T11:36:52.310Z,160301.44
2022-09-23T11:39:25.712Z,160342.94
2022-09-23T11:41:56.655Z,160416.56
2022-09-23T11:44:36.218Z,160451.34
2022-09-23T11:47:10.691Z,160487.50
2022-09-23T11:49:43.449Z,160555.78
2022-09-23T11:52:19.816Z,160559.81
2022-09-23T11:55:12.024Z,160582.56
2022-09-23T11:57:57.737Z,160571.81
2022-09-23T12:00:33.256Z,160582.56
2022-09-23T12:03:43.458Z,160633.44
2022-09-23T12:06:20.724Z,160672.22
2022-09-23T12:08:57.423Z,160666.91
2022-09-23T12:11:35.485Z,160632.09
2022-09-23T12:14:23.546Z,160644.09
2022-09-23T12:17:12.766Z,160558.44
2022-09-23T12:19:48.085Z,160480.78
2022-09-23T12:22:37.282Z,160404.53
2022-09-23T12:25:28.406Z,160379.06
2022-09-23T12:28:02.307Z,160368.31
2022-09-23T12:30:33.276Z,160421.91
2022-09-23T12:33:09.603Z,160460.75
2022-09-23T12:35:45.322Z,160476.81
2022-09-23T12:38:34.802Z,160437.97
2022-09-23T12:41:08.274Z,160407.19
2022-09-23T12:43:36.847Z,160379.06
2022-09-23T12:46:28.200Z,160350.94
2022-09-23T12:49:02.658Z,160360.31
2022-09-23T12:51:35.538Z,160392.50
2022-09-23T12:54:04.005Z,160458.06
2022-09-23T12:56:38.976Z,160527.66
2022-09-23T12:59:11.611Z,160558.44
2022-09-23T13:01:41.108Z,160558.44
2022-09-23T13:04:46.460Z,160507.56
2022-09-23T13:07:31.664Z,160491.53
2022-09-23T13:10:16.137Z,160507.56
2022-09-23T13:12:45.966Z,160558.44
2022-09-23T13:15:36.284Z,160554.44
2022-09-23T13:18:24.772Z,160559.81
2022-09-23T13:20:55.280Z,160558.44
2022-09-23T13:23:33.853Z,160504.91
2022-09-23T13:26:10.849Z,160444.66
2022-09-23T13:28:56.673Z,160391.16
2022-09-23T13:31:24.839Z,160361.69
2022-09-23T13:33:57.299Z,160340.22
2022-09-23T13:36:25.447Z,160345.59
2022-09-23T13:38:53.290Z,160329.53
2022-09-23T13:41:24.057Z,160316.16
2022-09-23T13:43:59.588Z,160305.47
2022-09-23T13:46:50.749Z,160329.53
2022-09-23T13:49:24.592Z,160318.81
2022-09-23T13:51:54.459Z,160328.22
2022-09-23T13:54:53.488Z,160371.03
2022-09-23T13:57:30.991Z,160356.31
2022-09-23T14:00:16.388Z,160383.13
2022-09-23T14:02:47.129Z,160352.28
2022-09-23T14:05:23.630Z,160350.94
2022-09-23T14:07:53.038Z,160358.97
2022-09-23T14:10:24.074Z,160387.13
2022-09-23T14:12:53.673Z,160384.47
2022-09-23T14:15:23.182Z,160387.13
2022-09-23T14:18:02.025Z,160360.31
2022-09-23T14:20:31.035Z,160400.50
2022-09-23T14:23:07.289Z,160380.38
2022-09-23T14:25:36.136Z,160360.31
2022-09-23T14:28:04.710Z,160367.00
2022-09-23T14:30:33.148Z,160389.78
2022-09-23T14:33:06.759Z,160404.53
2022-09-23T14:35:42.996Z,160395.16
2022-09-23T14:38:30.037Z,160369.69
2022-09-23T14:41:18.119Z,160391.16
2022-09-23T14:43:58.728Z,160358.97
2022-09-23T14:46:31.628Z,160379.06
2022-09-23T14:49:00.113Z,160372.34
2022-09-23T14:51:48.319Z,160365.66
2022-09-23T14:54:38.254Z,160336.25
2022-09-23T14:57:42.443Z,160340.22
2022-09-23T15:00:22.013Z,160317.50
2022-09-23T15:03:04.828Z,160282.69
2022-09-23T15:05:42.925Z,160261.28
2022-09-23T15:08:15.987Z,160234.59
2022-09-23T15:10:44.445Z,160215.84
2022-09-23T15:13:20.165Z,160205.13
2022-09-23T15:15:48.696Z,160189.06
2022-09-23T15:18:24.099Z,160197.09
2022-09-23T15:20:54.493Z,160199.81
2022-09-23T15:23:44.162Z,160197.09
2022-09-23T15:26:16.012Z,160190.41
2022-09-23T15:28:44.726Z,160182.38
2022-09-23T15:31:13.697Z,160159.66
2022-09-23T15:33:42.283Z,160142.25
2022-09-23T15:36:40.208Z,160136.94
2022-09-23T15:39:11.058Z,160126.22
2022-09-23T15:41:39.177Z,160128.91
2022-09-23T15:44:14.759Z,160114.16
2022-09-23T15:46:48.412Z,160122.22
2022-09-23T15:49:31.598Z,160106.16
2022-09-23T15:52:01.229Z,160082.09
2022-09-23T15:54:30.044Z,160076.75
2022-09-23T15:56:58.484Z,160066.06
2022-09-23T15:59:27.442Z,160047.28
2022-09-23T16:01:57.469Z,160031.25
2022-09-23T16:04:26.750Z,160031.25
2022-09-23T16:06:55.064Z,160021.88
2022-09-23T16:09:23.449Z,160012.53
2022-09-23T16:11:52.703Z,160015.16
2022-09-23T16:14:22.191Z,160000.47
2022-09-23T16:16:50.150Z,159996.50
2022-09-23T16:19:18.811Z,159995.16
2022-09-23T16:21:49.450Z,159983.13
2022-09-23T16:24:19.189Z,159918.97
2022-09-23T16:26:48.705Z,159916.25
2022-09-23T16:29:17.474Z,159865.47
2022-09-23T16:31:45.483Z,159857.47
2022-09-23T16:34:13.856Z,159833.44
2022-09-23T16:36:44.211Z,159833.44
2022-09-23T16:39:13.972Z,159806.69
2022-09-23T16:41:44.179Z,159800.00
2022-09-23T16:44:15.951Z,159798.69
2022-09-23T16:46:46.203Z,159801.34
2022-09-23T16:49:15.862Z,159785.31
2022-09-23T16:51:44.129Z,159786.66
2022-09-23T16:54:13.449Z,159784.00
2022-09-23T16:56:45.184Z,159779.97
2022-09-23T16:59:14.776Z,159778.63
2022-09-23T17:02:02.941Z,159771.94
2022-09-23T17:04:31.750Z,159763.94
2022-09-23T17:06:59.491Z,159753.22
2022-09-23T17:09:28.972Z,159734.56
2022-09-23T17:12:20.358Z,159715.84
2022-09-23T17:14:48.236Z,159686.47
2022-09-23T17:17:16.062Z,159674.38
2022-09-23T17:19:45.360Z,159685.13
2022-09-23T17:22:15.966Z,159681.06
2022-09-23T17:24:45.927Z,159686.47
2022-09-23T17:27:15.990Z,159690.44
2022-09-23T17:29:45.164Z,159695.78
2022-09-23T17:32:13.735Z,159701.16
2022-09-23T17:34:44.655Z,159710.47
2022-09-23T17:37:12.602Z,159715.84
2022-09-23T17:39:43.911Z,159719.88
2022-09-23T17:42:12.733Z,159705.13
2022-09-23T17:44:41.680Z,159726.56
2022-09-23T17:47:10.069Z,159734.56
2022-09-23T17:49:37.889Z,159737.22
2022-09-23T17:52:06.260Z,159741.25
2022-09-23T17:54:35.943Z,159654.34
2022-09-23T17:57:04.479Z,159631.63
2022-09-23T17:59:33.020Z,159611.59
2022-09-23T18:02:01.886Z,159611.59
2022-09-23T18:04:29.815Z,159598.22
2022-09-23T18:06:57.595Z,159606.25
2022-09-23T18:09:26.177Z,159620.97
2022-09-23T18:11:54.458Z,159620.97
2022-09-23T18:14:23.296Z,159616.94
2022-09-23T18:16:53.968Z,159622.31
2022-09-23T18:19:25.006Z,159622.31
2022-09-23T18:22:02.112Z,159627.66
2022-09-23T18:24:34.977Z,159607.63
2022-09-23T18:27:26.039Z,159611.59
2022-09-23T18:42:33.200Z,159596.91
2022-09-23T18:45:01.754Z,159604.91
2022-09-23T18:47:48.176Z,159599.63
2022-09-23T18:50:35.405Z,159595.59
2022-09-23T18:53:04.875Z,159595.59
2022-09-23T18:55:35.875Z,159608.94
2022-09-23T18:58:03.998Z,159604.91
2022-09-23T19:00:33.258Z,159607.63
2022-09-23T19:03:01.701Z,159607.63
2022-09-23T19:05:30.377Z,159610.25
2022-09-23T19:07:59.684Z,159588.91
2022-09-23T19:10:28.496Z,159600.94
2022-09-23T19:12:56.770Z,159590.22
2022-09-23T19:15:24.527Z,159588.91
2022-09-23T19:17:53.230Z,159580.91
2022-09-23T19:20:22.978Z,159583.56
2022-09-23T19:22:51.400Z,159575.53
2022-09-23T19:25:19.611Z,159575.53
2022-09-23T19:27:48.981Z,159580.91
2022-09-23T19:30:18.314Z,159572.88
2022-09-23T19:32:47.024Z,159564.88
2022-09-23T19:35:16.901Z,159546.19
2022-09-23T19:37:49.554Z,159536.84
2022-09-23T19:40:18.808Z,159531.50
2022-09-23T19:42:47.095Z,159524.81
2022-09-23T19:45:15.267Z,159519.47
2022-09-23T19:47:44.012Z,159499.41
2022-09-23T19:50:11.818Z,159482.09
2022-09-23T19:52:40.236Z,159456.69
2022-09-23T19:55:08.994Z,159422.00
2022-09-23T19:57:37.401Z,159383.31
2022-09-23T20:00:06.739Z,159348.59
2022-09-23T20:02:40.735Z,159312.56
2022-09-23T20:05:11.993Z,159288.53
2022-09-23T20:07:44.327Z,159259.13
2022-09-23T20:10:14.589Z,159204.41
2022-09-23T20:12:42.703Z,159143.09
2022-09-23T20:15:12.263Z,159128.41
2022-09-23T20:17:42.513Z,159107.06
2022-09-23T20:20:16.528Z,159092.41
2022-09-23T20:22:46.395Z,159072.41
2022-09-23T20:25:14.270Z,159037.72
2022-09-23T20:27:44.055Z,159029.72
2022-09-23T20:30:13.436Z,159000.34
2022-09-23T20:32:44.637Z,158967.06
2022-09-23T20:35:13.792Z,158940.38
2022-09-23T20:37:43.275Z,158893.69
2022-09-23T20:40:13.134Z,158884.38
2022-09-23T20:42:41.565Z,158856.41
2022-09-23T20:45:10.562Z,158832.41
2022-09-23T20:47:38.834Z,158809.72
2022-09-23T20:50:07.496Z,158789.78
2022-09-23T20:52:36.892Z,158768.34
2022-09-23T20:55:06.244Z,158756.41
2022-09-23T20:57:34.842Z,158732.38
2022-09-23T21:00:03.753Z,158684.47
2022-09-23T21:02:33.903Z,158640.47
2022-09-23T21:05:04.859Z,158624.50
2022-09-23T21:07:33.767Z,158607.19
2022-09-23T21:10:07.198Z,158601.84
2022-09-23T21:12:36.523Z,158585.88
2022-09-23T21:15:06.854Z,158571.19
2022-09-23T21:17:34.943Z,158559.25
2022-09-23T21:20:03.148Z,158532.59
2022-09-23T21:22:31.348Z,158521.91
2022-09-23T21:27:52.745Z,158521.91
2022-09-23T21:30:21.404Z,158516.63
2022-09-23T21:32:53.218Z,158525.94
2022-09-23T21:35:21.064Z,158531.28
2022-09-23T21:37:49.096Z,158539.25
2022-09-23T21:40:36.323Z,158536.63
2022-09-23T21:43:04.676Z,158535.25
2022-09-23T21:45:33.215Z,158521.91
2022-09-23T21:48:01.481Z,158536.63
2022-09-23T21:50:30.652Z,158539.25
2022-09-23T21:52:59.243Z,158541.91
2022-09-23T21:55:27.972Z,158536.63
2022-09-23T21:57:55.756Z,158557.91
2022-09-23T22:00:24.256Z,158561.88
2022-09-23T22:02:53.998Z,158552.59
2022-09-23T22:05:21.893Z,158537.94
2022-09-23T22:07:50.429Z,158517.94
2022-09-23T22:10:18.443Z,158505.94
2022-09-23T22:12:49.594Z,158484.66
2022-09-23T22:15:20.308Z,158493.94
2022-09-23T22:17:48.763Z,158491.31
2022-09-23T22:20:17.511Z,158502.00
2022-09-23T22:22:46.144Z,158523.28
2022-09-23T22:25:14.076Z,158528.56
2022-09-23T22:28:03.030Z,158537.94
2022-09-23T22:30:54.490Z,158515.31
2022-09-23T22:33:22.357Z,158495.31
2022-09-23T22:35:51.602Z,158495.31
2022-09-23T22:38:19.461Z,158491.31
2022-09-23T22:40:47.345Z,158478.00
2022-09-23T22:43:15.626Z,158474.03
2022-09-23T22:45:50.921Z,158476.66
2022-09-23T22:48:19.953Z,158466.00
2022-09-23T22:50:48.638Z,158460.69
2022-09-23T22:53:17.171Z,158446.06
2022-09-23T22:55:45.738Z,158436.72
2022-09-23T22:58:31.206Z,158430.03
2022-09-23T23:01:02.811Z,158416.72
2022-09-23T23:03:34.426Z,158394.13
2022-09-23T23:06:04.149Z,158379.47
2022-09-23T23:08:32.752Z,158339.53
2022-09-23T23:11:05.621Z,158300.94
2022-09-23T23:13:35.117Z,158273.00
2022-09-23T23:16:07.547Z,158275.66
2022-09-23T23:18:40.324Z,158261.00
2022-09-23T23:21:13.635Z,158263.72
2022-09-23T23:23:50.340Z,158261.00
2022-09-23T23:26:21.763Z,158262.38
2022-09-23T23:28:52.110Z,158254.34
2022-09-23T23:31:22.142Z,158239.72
2022-09-23T23:33:50.706Z,158222.44
2022-09-23T23:36:21.153Z,158189.19
2022-09-23T23:38:51.999Z,158194.50
2022-09-23T23:41:22.751Z,158183.84
2022-09-23T23:43:59.072Z,158174.53
2022-09-23T23:46:29.040Z,158171.91
2022-09-23T23:48:58.111Z,158161.25
2022-09-23T23:51:26.998Z,158143.97
2022-09-23T23:53:55.795Z,158127.91
2022-09-23T23:56:25.389Z,158121.25
2022-09-23T23:59:02.801Z,158106.63
